sensor_id;sensor_type;location;lat;lon;timestamp;P1;durP1;ratioP1;P2;durP2;ratioP2
60919;SDS011;59039;52.108;19.942;2022-12-29T00:00:34;21.10;;;10.20;;
60919;SDS011;59039;52.108;19.942;2022-12-29T00:02:59;22.40;;;11.10;;
60919;SDS011;59039;52.108;19.942;2022-12-29T00:05:24;21.40;;;8.90;;
60919;SDS011;59039;52.108;19.942;2022-12-29T00:07:50;17.90;;;8.50;;
60919;SDS011;59039;52.108;19.942;2022-12-29T00:10:15;20.50;;;9.10;;
60919;SDS011;59039;52.108;19.942;2022-12-29T00:12:40;20.90;;;9.80;;
60919;SDS011;59039;52.108;19.942;2022-12-29T00:15:06;20.30;;;9.90;;
60919;SDS011;59039;52.108;19.942;2022-12-29T00:17:31;22.20;;;9.40;;
60919;SDS011;59039;52.108;19.942;2022-12-29T00:19:57;23.00;;;10.50;;
60919;SDS011;59039;52.108;19.942;2022-12-29T00:22:22;27.80;;;11.10;;
60919;SDS011;59039;52.108;19.942;2022-12-29T00:24:47;22.90;;;11.40;;
60919;SDS011;59039;52.108;19.942;2022-12-29T00:27:13;18.60;;;8.90;;
60919;SDS011;59039;52.108;19.942;2022-12-29T00:29:38;19.30;;;9.30;;
60919;SDS011;59039;52.108;19.942;2022-12-29T00:32:04;20.90;;;9.20;;
60919;SDS011;59039;52.108;19.942;2022-12-29T00:34:31;20.10;;;8.30;;
60919;SDS011;59039;52.108;19.942;2022-12-29T00:36:56;19.00;;;8.70;;
60919;SDS011;59039;52.108;19.942;2022-12-29T00:39:22;24.30;;;10.00;;
60919;SDS011;59039;52.108;19.942;2022-12-29T00:41:47;18.20;;;8.00;;
60919;SDS011;59039;52.108;19.942;2022-12-29T00:44:13;21.20;;;8.70;;
60919;SDS011;59039;52.108;19.942;2022-12-29T00:46:40;14.40;;;8.40;;
60919;SDS011;59039;52.108;19.942;2022-12-29T00:49:07;22.00;;;9.90;;
60919;SDS011;59039;52.108;19.942;2022-12-29T00:51:34;20.20;;;8.20;;
60919;SDS011;59039;52.108;19.942;2022-12-29T00:53:59;18.20;;;8.90;;
60919;SDS011;59039;52.108;19.942;2022-12-29T00:56:24;20.60;;;10.00;;
60919;SDS011;59039;52.108;19.942;2022-12-29T00:58:50;22.20;;;10.60;;
60919;SDS011;59039;52.108;19.942;2022-12-29T01:01:15;20.50;;;9.80;;
60919;SDS011;59039;52.108;19.942;2022-12-29T01:03:40;18.40;;;9.90;;
60919;SDS011;59039;52.108;19.942;2022-12-29T01:06:07;17.50;;;8.40;;
60919;SDS011;59039;52.108;19.942;2022-12-29T01:08:34;14.70;;;7.60;;
60919;SDS011;59039;52.108;19.942;2022-12-29T01:11:00;16.40;;;8.30;;
60919;SDS011;59039;52.108;19.942;2022-12-29T01:13:27;18.80;;;8.30;;
60919;SDS011;59039;52.108;19.942;2022-12-29T01:15:53;15.30;;;7.50;;
60919;SDS011;59039;52.108;19.942;2022-12-29T01:18:19;18.00;;;8.30;;
60919;SDS011;59039;52.108;19.942;2022-12-29T01:20:44;16.30;;;8.10;;
60919;SDS011;59039;52.108;19.942;2022-12-29T01:23:10;16.50;;;7.60;;
60919;SDS011;59039;52.108;19.942;2022-12-29T01:25:35;15.40;;;8.50;;
60919;SDS011;59039;52.108;19.942;2022-12-29T01:28:00;17.70;;;9.10;;
60919;SDS011;59039;52.108;19.942;2022-12-29T01:30:25;14.40;;;8.00;;
60919;SDS011;59039;52.108;19.942;2022-12-29T01:32:51;17.10;;;8.20;;
60919;SDS011;59039;52.108;19.942;2022-12-29T01:35:16;19.80;;;8.20;;
60919;SDS011;59039;52.108;19.942;2022-12-29T01:37:41;17.40;;;8.00;;
60919;SDS011;59039;52.108;19.942;2022-12-29T01:40:06;14.70;;;8.10;;
60919;SDS011;59039;52.108;19.942;2022-12-29T01:42:32;16.40;;;9.30;;
60919;SDS011;59039;52.108;19.942;2022-12-29T01:44:59;17.60;;;8.80;;
60919;SDS011;59039;52.108;19.942;2022-12-29T01:47:37;17.30;;;8.30;;
60919;SDS011;59039;52.108;19.942;2022-12-29T01:50:09;19.90;;;9.20;;
60919;SDS011;59039;52.108;19.942;2022-12-29T01:52:37;17.90;;;7.80;;
60919;SDS011;59039;52.108;19.942;2022-12-29T01:55:06;15.30;;;7.80;;
60919;SDS011;59039;52.108;19.942;2022-12-29T01:57:37;15.40;;;8.70;;
60919;SDS011;59039;52.108;19.942;2022-12-29T02:00:07;19.20;;;8.40;;
60919;SDS011;59039;52.108;19.942;2022-12-29T02:02:34;14.30;;;7.80;;
60919;SDS011;59039;52.108;19.942;2022-12-29T02:05:01;16.80;;;7.80;;
60919;SDS011;59039;52.108;19.942;2022-12-29T02:07:39;13.60;;;8.00;;
60919;SDS011;59039;52.108;19.942;2022-12-29T02:10:05;15.20;;;7.60;;
60919;SDS011;59039;52.108;19.942;2022-12-29T02:12:31;14.90;;;7.90;;
60919;SDS011;59039;52.108;19.942;2022-12-29T02:14:57;17.30;;;8.60;;
60919;SDS011;59039;52.108;19.942;2022-12-29T02:20:28;19.00;;;7.90;;
60919;SDS011;59039;52.108;19.942;2022-12-29T02:30:55;11.40;;;7.40;;
60919;SDS011;59039;52.108;19.942;2022-12-29T02:36:04;16.70;;;7.70;;
60919;SDS011;59039;52.108;19.942;2022-12-29T02:38:37;12.70;;;6.70;;
60919;SDS011;59039;52.108;19.942;2022-12-29T02:41:33;17.00;;;7.40;;
60919;SDS011;59039;52.108;19.942;2022-12-29T02:46:38;15.80;;;8.70;;
60919;SDS011;59039;52.108;19.942;2022-12-29T02:54:20;17.20;;;7.80;;
60919;SDS011;59039;52.108;19.942;2022-12-29T02:56:46;16.50;;;7.30;;
60919;SDS011;59039;52.108;19.942;2022-12-29T02:59:11;17.70;;;8.30;;
60919;SDS011;59039;52.108;19.942;2022-12-29T03:12:41;20.90;;;9.10;;
60919;SDS011;59039;52.108;19.942;2022-12-29T03:15:10;18.00;;;9.10;;
60919;SDS011;59039;52.108;19.942;2022-12-29T03:17:53;20.20;;;8.60;;
60919;SDS011;59039;52.108;19.942;2022-12-29T03:23:19;16.40;;;7.80;;
60919;SDS011;59039;52.108;19.942;2022-12-29T03:25:48;17.30;;;6.90;;
60919;SDS011;59039;52.108;19.942;2022-12-29T03:28:23;17.20;;;7.10;;
60919;SDS011;59039;52.108;19.942;2022-12-29T03:30:53;14.40;;;7.20;;
60919;SDS011;59039;52.108;19.942;2022-12-29T03:33:23;16.20;;;7.70;;
60919;SDS011;59039;52.108;19.942;2022-12-29T03:35:52;13.40;;;7.20;;
60919;SDS011;59039;52.108;19.942;2022-12-29T03:38:23;12.20;;;7.40;;
60919;SDS011;59039;52.108;19.942;2022-12-29T03:40:53;14.30;;;7.20;;
60919;SDS011;59039;52.108;19.942;2022-12-29T03:43:22;14.40;;;7.50;;
60919;SDS011;59039;52.108;19.942;2022-12-29T03:45:48;10.80;;;6.90;;
60919;SDS011;59039;52.108;19.942;2022-12-29T03:48:13;12.30;;;6.80;;
60919;SDS011;59039;52.108;19.942;2022-12-29T03:50:39;15.60;;;8.10;;
60919;SDS011;59039;52.108;19.942;2022-12-29T03:53:04;15.00;;;7.30;;
60919;SDS011;59039;52.108;19.942;2022-12-29T03:55:29;15.10;;;7.50;;
60919;SDS011;59039;52.108;19.942;2022-12-29T03:57:55;14.60;;;7.00;;
60919;SDS011;59039;52.108;19.942;2022-12-29T04:00:20;16.40;;;7.30;;
60919;SDS011;59039;52.108;19.942;2022-12-29T04:02:46;11.40;;;6.70;;
60919;SDS011;59039;52.108;19.942;2022-12-29T04:05:11;13.00;;;7.70;;
60919;SDS011;59039;52.108;19.942;2022-12-29T04:07:36;13.60;;;6.70;;
60919;SDS011;59039;52.108;19.942;2022-12-29T04:10:02;15.10;;;7.90;;
60919;SDS011;59039;52.108;19.942;2022-12-29T04:12:28;17.80;;;8.20;;
60919;SDS011;59039;52.108;19.942;2022-12-29T04:14:53;12.90;;;7.40;;
60919;SDS011;59039;52.108;19.942;2022-12-29T04:17:19;15.60;;;7.20;;
60919;SDS011;59039;52.108;19.942;2022-12-29T04:19:44;13.50;;;7.10;;
60919;SDS011;59039;52.108;19.942;2022-12-29T04:22:09;15.40;;;6.50;;
60919;SDS011;59039;52.108;19.942;2022-12-29T04:24:34;15.20;;;7.60;;
60919;SDS011;59039;52.108;19.942;2022-12-29T04:27:00;16.10;;;7.20;;
60919;SDS011;59039;52.108;19.942;2022-12-29T04:29:25;13.80;;;7.20;;
60919;SDS011;59039;52.108;19.942;2022-12-29T04:31:50;12.40;;;7.50;;
60919;SDS011;59039;52.108;19.942;2022-12-29T04:34:15;13.20;;;7.50;;
60919;SDS011;59039;52.108;19.942;2022-12-29T04:36:41;14.20;;;7.60;;
60919;SDS011;59039;52.108;19.942;2022-12-29T04:39:06;13.80;;;6.70;;
60919;SDS011;59039;52.108;19.942;2022-12-29T04:41:32;14.90;;;8.40;;
60919;SDS011;59039;52.108;19.942;2022-12-29T04:43:57;10.50;;;7.10;;
60919;SDS011;59039;52.108;19.942;2022-12-29T04:46:23;15.70;;;7.80;;
60919;SDS011;59039;52.108;19.942;2022-12-29T04:48:48;20.40;;;8.80;;
60919;SDS011;59039;52.108;19.942;2022-12-29T04:51:13;19.30;;;10.10;;
60919;SDS011;59039;52.108;19.942;2022-12-29T04:53:39;20.00;;;9.70;;
60919;SDS011;59039;52.108;19.942;2022-12-29T04:56:04;15.00;;;8.00;;
60919;SDS011;59039;52.108;19.942;2022-12-29T04:58:30;13.80;;;7.50;;
60919;SDS011;59039;52.108;19.942;2022-12-29T05:00:55;17.60;;;7.70;;
60919;SDS011;59039;52.108;19.942;2022-12-29T05:03:20;13.60;;;6.90;;
60919;SDS011;59039;52.108;19.942;2022-12-29T05:05:46;14.80;;;7.40;;
60919;SDS011;59039;52.108;19.942;2022-12-29T05:08:11;16.00;;;7.70;;
60919;SDS011;59039;52.108;19.942;2022-12-29T05:10:36;19.80;;;8.30;;
60919;SDS011;59039;52.108;19.942;2022-12-29T05:13:02;14.50;;;7.90;;
60919;SDS011;59039;52.108;19.942;2022-12-29T05:15:27;10.30;;;6.70;;
60919;SDS011;59039;52.108;19.942;2022-12-29T05:17:52;12.30;;;6.70;;
60919;SDS011;59039;52.108;19.942;2022-12-29T05:20:18;15.20;;;6.90;;
60919;SDS011;59039;52.108;19.942;2022-12-29T05:22:43;15.00;;;6.90;;
60919;SDS011;59039;52.108;19.942;2022-12-29T05:25:09;15.10;;;7.10;;
60919;SDS011;59039;52.108;19.942;2022-12-29T05:27:34;14.10;;;6.90;;
60919;SDS011;59039;52.108;19.942;2022-12-29T05:30:00;17.20;;;7.00;;
60919;SDS011;59039;52.108;19.942;2022-12-29T05:32:26;12.00;;;6.30;;
60919;SDS011;59039;52.108;19.942;2022-12-29T05:34:51;15.60;;;7.60;;
60919;SDS011;59039;52.108;19.942;2022-12-29T05:37:16;18.40;;;8.00;;
60919;SDS011;59039;52.108;19.942;2022-12-29T05:39:42;12.30;;;7.70;;
60919;SDS011;59039;52.108;19.942;2022-12-29T05:42:07;16.90;;;7.90;;
60919;SDS011;59039;52.108;19.942;2022-12-29T05:44:32;15.60;;;8.50;;
60919;SDS011;59039;52.108;19.942;2022-12-29T05:46:57;17.30;;;8.20;;
60919;SDS011;59039;52.108;19.942;2022-12-29T05:49:23;19.60;;;8.90;;
60919;SDS011;59039;52.108;19.942;2022-12-29T05:51:48;25.60;;;11.00;;
60919;SDS011;59039;52.108;19.942;2022-12-29T05:54:13;25.60;;;10.40;;
60919;SDS011;59039;52.108;19.942;2022-12-29T05:56:39;20.20;;;10.10;;
60919;SDS011;59039;52.108;19.942;2022-12-29T05:59:04;18.30;;;9.10;;
60919;SDS011;59039;52.108;19.942;2022-12-29T06:01:29;19.50;;;9.70;;
60919;SDS011;59039;52.108;19.942;2022-12-29T06:03:55;16.80;;;9.40;;
60919;SDS011;59039;52.108;19.942;2022-12-29T06:06:20;27.90;;;12.80;;
60919;SDS011;59039;52.108;19.942;2022-12-29T06:08:46;32.20;;;13.20;;
60919;SDS011;59039;52.108;19.942;2022-12-29T06:11:11;33.50;;;13.50;;
60919;SDS011;59039;52.108;19.942;2022-12-29T06:13:37;36.00;;;13.10;;
60919;SDS011;59039;52.108;19.942;2022-12-29T06:16:02;26.10;;;12.20;;
60919;SDS011;59039;52.108;19.942;2022-12-29T06:18:28;32.20;;;13.20;;
60919;SDS011;59039;52.108;19.942;2022-12-29T06:20:53;22.30;;;10.80;;
60919;SDS011;59039;52.108;19.942;2022-12-29T06:23:18;20.20;;;9.00;;
60919;SDS011;59039;52.108;19.942;2022-12-29T06:25:44;27.60;;;10.10;;
60919;SDS011;59039;52.108;19.942;2022-12-29T06:28:12;23.00;;;11.10;;
60919;SDS011;59039;52.108;19.942;2022-12-29T06:30:37;20.10;;;10.50;;
60919;SDS011;59039;52.108;19.942;2022-12-29T06:33:03;22.20;;;10.50;;
60919;SDS011;59039;52.108;19.942;2022-12-29T06:35:28;20.00;;;8.80;;
60919;SDS011;59039;52.108;19.942;2022-12-29T06:37:53;20.60;;;8.60;;
60919;SDS011;59039;52.108;19.942;2022-12-29T06:40:18;19.50;;;9.60;;
60919;SDS011;59039;52.108;19.942;2022-12-29T06:42:44;25.10;;;10.80;;
60919;SDS011;59039;52.108;19.942;2022-12-29T06:45:09;20.00;;;9.80;;
60919;SDS011;59039;52.108;19.942;2022-12-29T06:47:35;24.40;;;12.10;;
60919;SDS011;59039;52.108;19.942;2022-12-29T06:50:00;34.20;;;15.00;;
60919;SDS011;59039;52.108;19.942;2022-12-29T06:52:26;39.80;;;17.80;;
60919;SDS011;59039;52.108;19.942;2022-12-29T06:54:51;52.30;;;23.70;;
60919;SDS011;59039;52.108;19.942;2022-12-29T06:57:16;47.00;;;20.30;;
60919;SDS011;59039;52.108;19.942;2022-12-29T06:59:42;35.90;;;16.20;;
60919;SDS011;59039;52.108;19.942;2022-12-29T07:02:09;32.00;;;15.80;;
60919;SDS011;59039;52.108;19.942;2022-12-29T07:04:35;37.90;;;18.50;;
60919;SDS011;59039;52.108;19.942;2022-12-29T07:07:01;37.70;;;15.60;;
60919;SDS011;59039;52.108;19.942;2022-12-29T07:09:26;43.40;;;20.30;;
60919;SDS011;59039;52.108;19.942;2022-12-29T07:11:51;42.90;;;19.00;;
60919;SDS011;59039;52.108;19.942;2022-12-29T07:14:16;31.90;;;13.80;;
60919;SDS011;59039;52.108;19.942;2022-12-29T07:16:42;29.20;;;15.50;;
60919;SDS011;59039;52.108;19.942;2022-12-29T07:19:07;24.80;;;13.70;;
60919;SDS011;59039;52.108;19.942;2022-12-29T07:21:32;26.20;;;13.20;;
60919;SDS011;59039;52.108;19.942;2022-12-29T07:23:57;28.80;;;13.90;;
60919;SDS011;59039;52.108;19.942;2022-12-29T07:26:23;28.50;;;13.60;;
60919;SDS011;59039;52.108;19.942;2022-12-29T07:28:48;24.70;;;12.50;;
60919;SDS011;59039;52.108;19.942;2022-12-29T07:31:14;22.20;;;11.10;;
60919;SDS011;59039;52.108;19.942;2022-12-29T07:33:41;23.90;;;12.60;;
60919;SDS011;59039;52.108;19.942;2022-12-29T07:36:06;23.50;;;12.60;;
60919;SDS011;59039;52.108;19.942;2022-12-29T07:38:32;21.50;;;11.30;;
60919;SDS011;59039;52.108;19.942;2022-12-29T07:40:57;14.70;;;9.30;;
60919;SDS011;59039;52.108;19.942;2022-12-29T07:43:23;15.00;;;8.50;;
60919;SDS011;59039;52.108;19.942;2022-12-29T07:45:48;16.70;;;8.30;;
60919;SDS011;59039;52.108;19.942;2022-12-29T07:48:14;12.40;;;7.90;;
60919;SDS011;59039;52.108;19.942;2022-12-29T07:50:39;15.90;;;7.80;;
60919;SDS011;59039;52.108;19.942;2022-12-29T07:53:04;22.00;;;10.60;;
60919;SDS011;59039;52.108;19.942;2022-12-29T07:55:30;21.90;;;11.70;;
60919;SDS011;59039;52.108;19.942;2022-12-29T07:57:55;30.60;;;13.40;;
60919;SDS011;59039;52.108;19.942;2022-12-29T08:00:21;30.90;;;12.40;;
60919;SDS011;59039;52.108;19.942;2022-12-29T08:02:47;25.10;;;10.70;;
60919;SDS011;59039;52.108;19.942;2022-12-29T08:05:13;32.80;;;13.70;;
60919;SDS011;59039;52.108;19.942;2022-12-29T08:07:38;27.70;;;11.90;;
60919;SDS011;59039;52.108;19.942;2022-12-29T08:10:03;29.00;;;11.80;;
60919;SDS011;59039;52.108;19.942;2022-12-29T08:12:29;28.40;;;11.50;;
60919;SDS011;59039;52.108;19.942;2022-12-29T08:14:54;31.10;;;12.20;;
60919;SDS011;59039;52.108;19.942;2022-12-29T08:17:20;27.50;;;10.70;;
60919;SDS011;59039;52.108;19.942;2022-12-29T08:19:45;28.60;;;10.50;;
60919;SDS011;59039;52.108;19.942;2022-12-29T08:22:11;19.00;;;8.80;;
60919;SDS011;59039;52.108;19.942;2022-12-29T08:24:37;20.80;;;10.00;;
60919;SDS011;59039;52.108;19.942;2022-12-29T08:27:03;55.60;;;23.30;;
60919;SDS011;59039;52.108;19.942;2022-12-29T08:29:28;62.30;;;26.30;;
60919;SDS011;59039;52.108;19.942;2022-12-29T08:31:53;38.80;;;16.00;;
60919;SDS011;59039;52.108;19.942;2022-12-29T08:34:18;28.70;;;11.60;;
60919;SDS011;59039;52.108;19.942;2022-12-29T08:36:44;25.70;;;11.00;;
60919;SDS011;59039;52.108;19.942;2022-12-29T08:39:09;34.20;;;12.60;;
60919;SDS011;59039;52.108;19.942;2022-12-29T08:41:34;27.10;;;13.40;;
60919;SDS011;59039;52.108;19.942;2022-12-29T08:44:00;23.60;;;12.90;;
60919;SDS011;59039;52.108;19.942;2022-12-29T08:46:25;22.40;;;11.80;;
60919;SDS011;59039;52.108;19.942;2022-12-29T08:48:51;21.30;;;10.70;;
60919;SDS011;59039;52.108;19.942;2022-12-29T08:51:16;25.60;;;12.50;;
60919;SDS011;59039;52.108;19.942;2022-12-29T08:53:41;37.80;;;18.30;;
60919;SDS011;59039;52.108;19.942;2022-12-29T08:56:08;38.00;;;18.10;;
60919;SDS011;59039;52.108;19.942;2022-12-29T08:58:34;35.60;;;16.70;;
60919;SDS011;59039;52.108;19.942;2022-12-29T09:00:59;30.50;;;14.10;;
60919;SDS011;59039;52.108;19.942;2022-12-29T09:03:25;20.10;;;11.30;;
60919;SDS011;59039;52.108;19.942;2022-12-29T09:05:51;20.80;;;12.00;;
60919;SDS011;59039;52.108;19.942;2022-12-29T09:08:18;28.30;;;16.00;;
60919;SDS011;59039;52.108;19.942;2022-12-29T09:10:44;32.30;;;15.70;;
60919;SDS011;59039;52.108;19.942;2022-12-29T09:13:10;31.70;;;14.50;;
60919;SDS011;59039;52.108;19.942;2022-12-29T09:15:38;30.10;;;15.50;;
60919;SDS011;59039;52.108;19.942;2022-12-29T09:18:04;28.00;;;14.60;;
60919;SDS011;59039;52.108;19.942;2022-12-29T09:20:30;27.60;;;13.70;;
60919;SDS011;59039;52.108;19.942;2022-12-29T09:22:55;23.30;;;12.60;;
60919;SDS011;59039;52.108;19.942;2022-12-29T09:25:21;20.70;;;10.60;;
60919;SDS011;59039;52.108;19.942;2022-12-29T09:27:46;20.00;;;10.40;;
60919;SDS011;59039;52.108;19.942;2022-12-29T09:30:12;21.60;;;10.80;;
60919;SDS011;59039;52.108;19.942;2022-12-29T09:32:37;25.10;;;10.30;;
60919;SDS011;59039;52.108;19.942;2022-12-29T09:35:03;20.80;;;10.30;;
60919;SDS011;59039;52.108;19.942;2022-12-29T09:37:29;18.40;;;9.20;;
60919;SDS011;59039;52.108;19.942;2022-12-29T09:39:54;22.70;;;10.20;;
60919;SDS011;59039;52.108;19.942;2022-12-29T09:42:43;28.10;;;10.80;;
60919;SDS011;59039;52.108;19.942;2022-12-29T09:45:18;18.40;;;9.90;;
60919;SDS011;59039;52.108;19.942;2022-12-29T09:47:54;25.00;;;11.30;;
60919;SDS011;59039;52.108;19.942;2022-12-29T09:52:48;20.60;;;10.70;;
60919;SDS011;59039;52.108;19.942;2022-12-29T09:55:19;17.20;;;9.40;;
60919;SDS011;59039;52.108;19.942;2022-12-29T10:00:52;19.40;;;9.00;;
60919;SDS011;59039;52.108;19.942;2022-12-29T10:03:26;24.10;;;11.20;;
60919;SDS011;59039;52.108;19.942;2022-12-29T10:06:08;27.80;;;14.70;;
60919;SDS011;59039;52.108;19.942;2022-12-29T10:16:38;51.80;;;20.20;;
60919;SDS011;59039;52.108;19.942;2022-12-29T10:24:41;27.40;;;12.20;;
60919;SDS011;59039;52.108;19.942;2022-12-29T10:27:11;25.50;;;11.70;;
60919;SDS011;59039;52.108;19.942;2022-12-29T10:29:40;33.60;;;11.70;;
60919;SDS011;59039;52.108;19.942;2022-12-29T10:32:15;33.20;;;13.30;;
60919;SDS011;59039;52.108;19.942;2022-12-29T10:34:49;38.60;;;16.50;;
60919;SDS011;59039;52.108;19.942;2022-12-29T10:37:24;31.50;;;13.40;;
60919;SDS011;59039;52.108;19.942;2022-12-29T10:39:56;31.60;;;12.70;;
60919;SDS011;59039;52.108;19.942;2022-12-29T10:42:27;32.30;;;12.60;;
60919;SDS011;59039;52.108;19.942;2022-12-29T10:45:10;26.60;;;12.20;;
60919;SDS011;59039;52.108;19.942;2022-12-29T10:50:27;24.60;;;10.10;;
60919;SDS011;59039;52.108;19.942;2022-12-29T10:52:53;24.50;;;11.00;;
60919;SDS011;59039;52.108;19.942;2022-12-29T10:55:34;26.90;;;11.40;;
60919;SDS011;59039;52.108;19.942;2022-12-29T10:58:05;25.80;;;12.20;;
60919;SDS011;59039;52.108;19.942;2022-12-29T11:00:32;25.40;;;14.10;;
60919;SDS011;59039;52.108;19.942;2022-12-29T11:03:02;27.00;;;12.70;;
60919;SDS011;59039;52.108;19.942;2022-12-29T11:05:39;21.90;;;12.20;;
60919;SDS011;59039;52.108;19.942;2022-12-29T11:08:12;28.80;;;12.50;;
60919;SDS011;59039;52.108;19.942;2022-12-29T11:10:41;30.10;;;13.40;;
60919;SDS011;59039;52.108;19.942;2022-12-29T11:13:18;26.90;;;12.80;;
60919;SDS011;59039;52.108;19.942;2022-12-29T11:15:50;21.70;;;10.10;;
60919;SDS011;59039;52.108;19.942;2022-12-29T11:18:20;24.00;;;10.80;;
60919;SDS011;59039;52.108;19.942;2022-12-29T11:20:46;27.80;;;11.20;;
60919;SDS011;59039;52.108;19.942;2022-12-29T11:28:37;30.40;;;13.80;;
60919;SDS011;59039;52.108;19.942;2022-12-29T11:31:04;32.70;;;13.60;;
60919;SDS011;59039;52.108;19.942;2022-12-29T11:33:31;27.20;;;12.40;;
60919;SDS011;59039;52.108;19.942;2022-12-29T11:35:58;24.00;;;11.60;;
60919;SDS011;59039;52.108;19.942;2022-12-29T11:38:29;28.90;;;13.20;;
60919;SDS011;59039;52.108;19.942;2022-12-29T11:41:00;32.70;;;15.00;;
60919;SDS011;59039;52.108;19.942;2022-12-29T11:43:30;27.60;;;12.40;;
60919;SDS011;59039;52.108;19.942;2022-12-29T11:45:56;24.00;;;12.70;;
60919;SDS011;59039;52.108;19.942;2022-12-29T11:48:21;27.10;;;13.30;;
60919;SDS011;59039;52.108;19.942;2022-12-29T11:50:54;33.70;;;15.90;;
60919;SDS011;59039;52.108;19.942;2022-12-29T11:55:55;25.10;;;11.20;;
60919;SDS011;59039;52.108;19.942;2022-12-29T11:58:33;23.90;;;10.40;;
60919;SDS011;59039;52.108;19.942;2022-12-29T12:01:02;24.00;;;11.80;;
60919;SDS011;59039;52.108;19.942;2022-12-29T12:03:32;24.90;;;11.80;;
60919;SDS011;59039;52.108;19.942;2022-12-29T12:06:02;18.70;;;10.10;;
60919;SDS011;59039;52.108;19.942;2022-12-29T12:08:33;28.30;;;10.20;;
60919;SDS011;59039;52.108;19.942;2022-12-29T12:16:41;21.00;;;11.30;;
60919;SDS011;59039;52.108;19.942;2022-12-29T12:22:17;23.60;;;11.60;;
60919;SDS011;59039;52.108;19.942;2022-12-29T12:24:52;29.10;;;11.90;;
60919;SDS011;59039;52.108;19.942;2022-12-29T12:32:39;22.80;;;11.40;;
60919;SDS011;59039;52.108;19.942;2022-12-29T12:36:09;26.90;;;12.60;;
60919;SDS011;59039;52.108;19.942;2022-12-29T12:38:29;23.10;;;12.20;;
60919;SDS011;59039;52.108;19.942;2022-12-29T12:41:13;26.50;;;14.00;;
60919;SDS011;59039;52.108;19.942;2022-12-29T12:44:10;20.80;;;9.80;;
60919;SDS011;59039;52.108;19.942;2022-12-29T12:46:52;25.10;;;11.10;;
60919;SDS011;59039;52.108;19.942;2022-12-29T13:38:41;30.90;;;13.80;;
60919;SDS011;59039;52.108;19.942;2022-12-29T13:41:12;31.20;;;12.70;;
60919;SDS011;59039;52.108;19.942;2022-12-29T13:43:43;26.90;;;13.50;;
60919;SDS011;59039;52.108;19.942;2022-12-29T13:46:31;24.00;;;12.80;;
60919;SDS011;59039;52.108;19.942;2022-12-29T13:49:05;37.50;;;15.40;;
60919;SDS011;59039;52.108;19.942;2022-12-29T13:51:36;38.30;;;15.70;;
60919;SDS011;59039;52.108;19.942;2022-12-29T13:57:12;33.30;;;15.10;;
60919;SDS011;59039;52.108;19.942;2022-12-29T13:59:56;33.30;;;14.00;;
60919;SDS011;59039;52.108;19.942;2022-12-29T14:02:37;29.50;;;14.00;;
60919;SDS011;59039;52.108;19.942;2022-12-29T14:07:42;37.60;;;15.90;;
60919;SDS011;59039;52.108;19.942;2022-12-29T14:10:31;33.00;;;13.60;;
60919;SDS011;59039;52.108;19.942;2022-12-29T14:13:03;25.50;;;12.70;;
60919;SDS011;59039;52.108;19.942;2022-12-29T14:15:37;33.80;;;15.20;;
60919;SDS011;59039;52.108;19.942;2022-12-29T14:18:05;32.10;;;15.50;;
60919;SDS011;59039;52.108;19.942;2022-12-29T14:20:36;38.40;;;16.50;;
60919;SDS011;59039;52.108;19.942;2022-12-29T14:28:29;31.40;;;15.10;;
60919;SDS011;59039;52.108;19.942;2022-12-29T14:30:56;35.50;;;14.40;;
60919;SDS011;59039;52.108;19.942;2022-12-29T14:33:23;34.30;;;15.00;;
60919;SDS011;59039;52.108;19.942;2022-12-29T14:35:50;44.10;;;18.00;;
60919;SDS011;59039;52.108;19.942;2022-12-29T14:38:19;34.60;;;17.20;;
60919;SDS011;59039;52.108;19.942;2022-12-29T14:40:47;38.10;;;16.70;;
60919;SDS011;59039;52.108;19.942;2022-12-29T14:43:23;40.50;;;18.30;;
60919;SDS011;59039;52.108;19.942;2022-12-29T14:45:58;35.90;;;18.30;;
60919;SDS011;59039;52.108;19.942;2022-12-29T14:50:56;43.40;;;19.80;;
60919;SDS011;59039;52.108;19.942;2022-12-29T14:56:15;22.00;;;11.80;;
60919;SDS011;59039;52.108;19.942;2022-12-29T15:01:21;56.80;;;23.50;;
60919;SDS011;59039;52.108;19.942;2022-12-29T15:04:15;60.30;;;23.50;;
60919;SDS011;59039;52.108;19.942;2022-12-29T15:06:46;43.30;;;18.30;;
60919;SDS011;59039;52.108;19.942;2022-12-29T15:09:17;65.80;;;24.20;;
60919;SDS011;59039;52.108;19.942;2022-12-29T15:11:57;43.90;;;17.30;;
60919;SDS011;59039;52.108;19.942;2022-12-29T15:16:54;69.90;;;21.40;;
60919;SDS011;59039;52.108;19.942;2022-12-29T15:19:23;43.20;;;17.20;;
60919;SDS011;59039;52.108;19.942;2022-12-29T15:21:50;48.80;;;18.00;;
60919;SDS011;59039;52.108;19.942;2022-12-29T15:24:15;45.90;;;18.20;;
60919;SDS011;59039;52.108;19.942;2022-12-29T15:26:42;46.50;;;16.90;;
60919;SDS011;59039;52.108;19.942;2022-12-29T15:32:01;33.30;;;13.50;;
60919;SDS011;59039;52.108;19.942;2022-12-29T15:34:41;46.50;;;15.20;;
60919;SDS011;59039;52.108;19.942;2022-12-29T15:37:07;75.30;;;21.00;;
60919;SDS011;59039;52.108;19.942;2022-12-29T15:39:33;40.30;;;14.20;;
60919;SDS011;59039;52.108;19.942;2022-12-29T15:42:00;45.30;;;16.20;;
60919;SDS011;59039;52.108;19.942;2022-12-29T15:44:37;45.20;;;15.80;;
60919;SDS011;59039;52.108;19.942;2022-12-29T15:47:05;49.40;;;16.80;;
60919;SDS011;59039;52.108;19.942;2022-12-29T15:49:36;43.20;;;14.60;;
60919;SDS011;59039;52.108;19.942;2022-12-29T15:52:05;68.50;;;21.60;;
60919;SDS011;59039;52.108;19.942;2022-12-29T15:54:32;51.60;;;18.90;;
60919;SDS011;59039;52.108;19.942;2022-12-29T15:56:57;37.70;;;14.50;;
60919;SDS011;59039;52.108;19.942;2022-12-29T15:59:24;53.00;;;19.50;;
60919;SDS011;59039;52.108;19.942;2022-12-29T16:01:56;42.80;;;17.20;;
60919;SDS011;59039;52.108;19.942;2022-12-29T16:04:22;47.10;;;18.10;;
60919;SDS011;59039;52.108;19.942;2022-12-29T16:06:54;37.40;;;14.40;;
60919;SDS011;59039;52.108;19.942;2022-12-29T16:09:31;44.10;;;18.20;;
60919;SDS011;59039;52.108;19.942;2022-12-29T16:12:16;45.30;;;17.30;;
60919;SDS011;59039;52.108;19.942;2022-12-29T16:14:48;38.50;;;17.50;;
60919;SDS011;59039;52.108;19.942;2022-12-29T16:17:20;32.90;;;14.80;;
60919;SDS011;59039;52.108;19.942;2022-12-29T16:19:55;32.50;;;14.90;;
60919;SDS011;59039;52.108;19.942;2022-12-29T16:22:34;34.50;;;18.40;;
60919;SDS011;59039;52.108;19.942;2022-12-29T16:27:56;46.40;;;19.70;;
60919;SDS011;59039;52.108;19.942;2022-12-29T16:30:25;41.00;;;18.60;;
60919;SDS011;59039;52.108;19.942;2022-12-29T16:32:56;45.80;;;19.10;;
60919;SDS011;59039;52.108;19.942;2022-12-29T16:35:27;41.10;;;18.20;;
60919;SDS011;59039;52.108;19.942;2022-12-29T16:40:53;32.20;;;16.80;;
60919;SDS011;59039;52.108;19.942;2022-12-29T16:43:21;27.70;;;12.80;;
60919;SDS011;59039;52.108;19.942;2022-12-29T16:50:38;32.70;;;16.10;;
60919;SDS011;59039;52.108;19.942;2022-12-29T16:53:15;28.80;;;14.50;;
60919;SDS011;59039;52.108;19.942;2022-12-29T16:55:49;28.10;;;15.40;;
60919;SDS011;59039;52.108;19.942;2022-12-29T16:58:18;33.50;;;15.80;;
60919;SDS011;59039;52.108;19.942;2022-12-29T17:00:47;34.00;;;17.70;;
60919;SDS011;59039;52.108;19.942;2022-12-29T17:03:12;34.50;;;16.30;;